Time;durP1;ratioP1;P1;durP2;ratioP2;P2;SDS_P1;SDS_P2;PMS_P1;PMS_P2;Temp;Humidity;BMP_temperature;BMP_pressure;BME280_temperature;BME280_humidity;BME280_pressure;Samples;Min_cycle;Max_cycle;Signal;HPM_P1;HPM_P2
2022/03/07 00:00:10;;;;;;;6.13;2.03;;;0.30;99.90;;;;;;6242014;22;20024;-80
2022/03/07 00:02:36;;;;;;;5.82;2.50;;;0.20;99.90;;;;;;6241088;23;20393;-79
2022/03/07 00:05:02;;;;;;;5.88;1.88;;;0.30;99.90;;;;;;6218311;23;20020;-76
2022/03/07 00:07:27;;;;;;;5.45;2.10;;;0.20;99.90;;;;;;6243781;22;20328;-79
2022/03/07 00:09:53;;;;;;;5.68;2.20;;;0.20;99.90;;;;;;6244262;23;20020;-77
2022/03/07 00:12:18;;;;;;;6.43;2.67;;;0.10;99.90;;;;;;6242003;23;20035;-77
2022/03/07 00:14:44;;;;;;;7.63;2.22;;;0.10;99.90;;;;;;6214530;23;20344;-77
2022/03/07 00:17:10;;;;;;;5.85;2.10;;;0.10;99.90;;;;;;6243361;23;20038;-77
2022/03/07 00:19:35;;;;;;;7.35;2.17;;;0.00;99.90;;;;;;6241292;23;20115;-78
2022/03/07 00:22:01;;;;;;;5.60;2.03;;;-0.10;99.90;;;;;;6241216;23;20012;-77
2022/03/07 00:24:28;;;;;;;8.63;2.63;;;-0.10;99.90;;;;;;6241343;23;20023;-84
2022/03/07 00:26:53;;;;;;;12.25;2.95;;;-0.10;99.90;;;;;;6241415;23;20016;-78
2022/03/07 00:29:19;;;;;;;9.85;3.20;;;0.00;99.90;;;;;;6214452;23;20023;-78
2022/03/07 00:31:45;;;;;;;10.43;2.40;;;-0.10;99.90;;;;;;6190095;23;20054;-79
2022/03/07 00:34:11;;;;;;;5.32;2.85;;;-0.10;99.90;;;;;;6216534;23;20103;-81
2022/03/07 00:36:36;;;;;;;9.75;2.65;;;-0.20;99.90;;;;;;6216104;23;20309;-77
2022/03/07 00:39:02;;;;;;;9.80;3.10;;;-0.20;99.90;;;;;;6191511;23;20016;-78
2022/03/07 00:41:28;;;;;;;6.07;2.47;;;-0.30;99.90;;;;;;6191643;23;20394;-79
2022/03/07 00:43:54;;;;;;;9.68;2.45;;;-0.30;99.90;;;;;;6214755;23;20397;-79
2022/03/07 00:46:20;;;;;;;5.93;2.28;;;-0.30;99.90;;;;;;6243097;23;20057;-77
2022/03/07 00:48:45;;;;;;;8.35;2.42;;;0.10;99.90;;;;;;6216360;23;20407;-78
2022/03/07 00:51:11;;;;;;;9.68;2.67;;;-0.30;99.90;;;;;;6190842;23;20040;-77
2022/03/07 00:53:37;;;;;;;8.57;2.83;;;-0.40;99.90;;;;;;6191441;23;20091;-78
2022/03/07 00:56:03;;;;;;;9.73;2.80;;;-0.40;99.90;;;;;;6216873;23;20019;-77
2022/03/07 00:58:28;;;;;;;7.50;2.60;;;-0.30;99.90;;;;;;6214293;23;20012;-79
2022/03/07 01:00:54;;;;;;;5.28;2.42;;;-0.40;99.90;;;;;;6190095;23;20016;-79
2022/03/07 01:03:20;;;;;;;10.85;3.10;;;-0.40;99.90;;;;;;6243591;23;20310;-78
2022/03/07 01:05:46;;;;;;;11.98;3.35;;;-0.40;99.90;;;;;;6243880;23;20016;-80
2022/03/07 01:08:12;;;;;;;5.47;2.65;;;-0.20;99.90;;;;;;6216992;23;20035;-78
2022/03/07 01:10:38;;;;;;;10.30;3.20;;;-0.30;99.90;;;;;;6216929;23;20024;-79
2022/03/07 01:13:06;;;;;;;7.57;2.90;;;-0.10;99.90;;;;;;6216461;23;20498;-78
2022/03/07 01:15:32;;;;;;;12.55;3.30;;;0.00;99.90;;;;;;6215575;23;20019;-78
2022/03/07 01:17:59;;;;;;;12.05;2.90;;;0.10;99.90;;;;;;6217173;23;20023;-77
2022/03/07 01:20:28;;;;;;;15.57;3.47;;;0.10;99.90;;;;;;6216538;23;20175;-78
2022/03/07 01:22:54;;;;;;;9.32;2.45;;;0.00;99.90;;;;;;6216578;23;20100;-78
2022/03/07 01:25:20;;;;;;;5.32;2.53;;;0.00;99.90;;;;;;6190672;23;20043;-77
2022/03/07 01:27:47;;;;;;;7.03;2.67;;;-0.10;99.90;;;;;;6225244;23;20020;-79
2022/03/07 01:30:12;;;;;;;11.75;2.97;;;-0.20;99.90;;;;;;6214990;23;20052;-77
2022/03/07 01:32:38;;;;;;;9.02;2.78;;;-0.30;99.90;;;;;;6217203;23;20035;-78
2022/03/07 01:35:06;;;;;;;6.00;2.70;;;-0.40;99.90;;;;;;6241554;23;20440;-78
2022/03/07 01:37:31;;;;;;;4.03;2.47;;;-0.50;99.90;;;;;;6241402;23;20012;-78
2022/03/07 01:39:58;;;;;;;6.68;2.90;;;-0.50;99.90;;;;;;6243324;23;20091;-78
2022/03/07 01:42:24;;;;;;;8.77;3.13;;;-0.50;99.90;;;;;;6248733;23;20022;-77
2022/03/07 01:44:49;;;;;;;8.05;3.15;;;-0.60;99.90;;;;;;6217664;23;20087;-79
2022/03/07 01:47:15;;;;;;;8.27;2.30;;;-0.60;99.90;;;;;;6241459;23;20400;-80
2022/03/07 01:49:41;;;;;;;6.32;2.50;;;-0.70;99.90;;;;;;6241489;23;20016;-80
2022/03/07 01:52:08;;;;;;;6.50;2.88;;;-0.70;99.90;;;;;;6241353;23;20019;-77
2022/03/07 01:54:33;;;;;;;5.22;2.80;;;-0.70;99.90;;;;;;6215985;23;20023;-79
2022/03/07 01:56:59;;;;;;;7.72;2.70;;;-0.70;99.90;;;;;;6241223;23;20008;-80
2022/03/07 01:59:27;;;;;;;9.93;2.72;;;-0.70;99.90;;;;;;6241664;23;20019;-80
2022/03/07 02:01:54;;;;;;;6.93;2.90;;;-0.70;99.90;;;;;;6241722;23;20115;-78
2022/03/07 02:04:20;;;;;;;13.30;2.97;;;-0.80;99.90;;;;;;6241253;23;20016;-78
2022/03/07 02:06:46;;;;;;;6.63;2.70;;;-0.80;99.90;;;;;;6241466;22;20094;-78
2022/03/07 02:09:13;;;;;;;9.77;2.78;;;-0.80;99.90;;;;;;6241116;23;20305;-79
2022/03/07 02:11:39;;;;;;;7.45;2.83;;;-0.90;99.90;;;;;;6216684;23;20016;-79
2022/03/07 02:14:12;;;;;;;4.28;3.00;;;-0.90;99.90;;;;;;6214801;23;20161;-79
2022/03/07 02:16:38;;;;;;;7.95;2.83;;;-0.90;99.90;;;;;;6241539;23;20018;-79
2022/03/07 02:19:04;;;;;;;7.05;2.88;;;-0.90;99.90;;;;;;6240456;23;20016;-78
2022/03/07 02:21:33;;;;;;;8.70;2.60;;;-1.00;99.90;;;;;;6243631;23;20019;-80
2022/03/07 02:23:59;;;;;;;8.82;3.17;;;-0.90;99.90;;;;;;6241040;23;20090;-79
2022/03/07 02:26:24;;;;;;;5.78;2.67;;;-1.00;99.90;;;;;;6240532;23;20055;-77
2022/03/07 02:28:50;;;;;;;5.43;2.83;;;-1.00;99.90;;;;;;6238992;23;20343;-78
2022/03/07 02:31:18;;;;;;;5.40;2.70;;;-1.10;99.90;;;;;;6215884;23;20601;-79
2022/03/07 02:33:44;;;;;;;9.25;3.00;;;-1.10;99.90;;;;;;6240384;23;20020;-80
2022/03/07 02:36:10;;;;;;;6.30;2.97;;;-1.10;99.90;;;;;;6215973;23;20018;-77
2022/03/07 02:38:36;;;;;;;6.07;2.63;;;-1.20;99.90;;;;;;6240750;23;20163;-77
2022/03/07 02:41:02;;;;;;;6.07;2.80;;;-1.20;99.90;;;;;;6241576;23;20070;-77
2022/03/07 02:43:27;;;;;;;6.03;2.72;;;-1.20;99.90;;;;;;6239844;23;20078;-78
2022/03/07 02:45:54;;;;;;;9.27;3.08;;;-1.20;99.90;;;;;;6241055;23;20024;-80
2022/03/07 02:48:20;;;;;;;7.13;2.90;;;-1.30;99.90;;;;;;6216098;23;20008;-78
2022/03/07 02:50:46;;;;;;;5.03;2.55;;;-1.20;99.90;;;;;;6241268;23;20004;-79
2022/03/07 02:53:12;;;;;;;5.10;2.67;;;-1.30;99.90;;;;;;6240955;23;20019;-79
2022/03/07 02:55:38;;;;;;;10.07;2.90;;;-1.30;99.90;;;;;;6240523;23;20467;-78
2022/03/07 02:58:04;;;;;;;6.88;2.50;;;-1.30;99.90;;;;;;6214705;23;20020;-79
2022/03/07 03:00:30;;;;;;;7.72;2.90;;;-1.30;99.90;;;;;;6240299;23;20058;-81
2022/03/07 03:02:56;;;;;;;9.82;2.90;;;-1.30;99.90;;;;;;6241327;23;20111;-78
2022/03/07 03:05:22;;;;;;;7.22;2.95;;;-1.30;99.90;;;;;;6215454;23;20023;-77
2022/03/07 03:07:48;;;;;;;4.82;2.80;;;-1.40;99.90;;;;;;6242448;22;20012;-78
2022/03/07 03:10:14;;;;;;;6.50;2.78;;;-1.40;99.90;;;;;;6241518;23;20012;-78
2022/03/07 03:12:39;;;;;;;5.80;2.90;;;-1.40;99.90;;;;;;6240870;23;20338;-80
2022/03/07 03:15:06;;;;;;;7.22;2.60;;;-1.50;99.90;;;;;;6238655;23;20096;-80
2022/03/07 03:17:32;;;;;;;4.53;2.55;;;-1.40;99.90;;;;;;6242869;23;20123;-80
2022/03/07 03:19:57;;;;;;;8.50;2.60;;;-1.50;99.90;;;;;;6241188;23;20051;-78
2022/03/07 03:22:23;;;;;;;10.77;3.10;;;-1.50;99.90;;;;;;6241723;23;20393;-80
2022/03/07 03:24:49;;;;;;;9.15;2.58;;;-1.60;99.90;;;;;;6240443;23;20424;-78
2022/03/07 03:27:15;;;;;;;5.20;2.63;;;-1.50;99.90;;;;;;6240643;23;20031;-81
2022/03/07 03:29:41;;;;;;;4.70;2.67;;;-1.50;99.90;;;;;;6239263;23;20027;-79
2022/03/07 03:32:07;;;;;;;6.22;2.60;;;-1.50;99.90;;;;;;6215568;23;20018;-77
2022/03/07 03:34:32;;;;;;;4.57;2.65;;;-1.50;99.90;;;;;;6240778;23;20009;-79
2022/03/07 03:36:58;;;;;;;5.90;2.70;;;-1.60;99.90;;;;;;6215758;23;20066;-80
2022/03/07 03:39:24;;;;;;;6.03;2.40;;;-1.60;99.90;;;;;;6240905;23;20012;-77
2022/03/07 03:41:50;;;;;;;8.05;3.00;;;-1.60;99.90;;;;;;6240660;23;20055;-79
2022/03/07 03:44:16;;;;;;;6.85;3.05;;;-1.60;99.90;;;;;;6239854;23;20035;-79
2022/03/07 03:46:42;;;;;;;6.38;2.70;;;-1.70;99.90;;;;;;6240806;23;20012;-79
2022/03/07 03:49:07;;;;;;;6.80;3.10;;;-1.60;99.90;;;;;;6241088;23;20055;-79
2022/03/07 03:51:36;;;;;;;3.90;2.63;;;-1.70;99.90;;;;;;6241008;23;20467;-80
2022/03/07 03:54:02;;;;;;;8.82;2.78;;;-1.60;99.90;;;;;;6240934;23;20012;-79
2022/03/07 03:56:28;;;;;;;6.88;2.67;;;-1.70;99.90;;;;;;6241379;23;20012;-78
2022/03/07 03:58:53;;;;;;;4.30;2.63;;;-1.70;99.90;;;;;;6240337;23;20044;-79
2022/03/07 04:01:19;;;;;;;5.80;2.97;;;-1.70;99.90;;;;;;6215117;23;20385;-79
2022/03/07 04:03:45;;;;;;;6.28;2.67;;;-1.70;99.90;;;;;;6240519;23;20008;-81
2022/03/07 04:06:10;;;;;;;7.85;2.58;;;-1.70;99.90;;;;;;6239919;22;20039;-80
2022/03/07 04:08:39;;;;;;;6.82;3.03;;;-1.70;99.90;;;;;;6215309;23;20019;-81
2022/03/07 04:11:05;;;;;;;9.23;3.35;;;-1.70;99.90;;;;;;6215486;23;20443;-80
2022/03/07 04:13:30;;;;;;;8.73;3.08;;;-1.70;99.90;;;;;;6214555;23;20012;-81
2022/03/07 04:15:56;;;;;;;7.53;2.95;;;-1.80;99.90;;;;;;6215134;23;20008;-79
2022/03/07 04:18:22;;;;;;;5.95;2.83;;;-1.70;99.90;;;;;;6240855;23;20012;-81
2022/03/07 04:20:47;;;;;;;8.63;3.25;;;-1.70;99.90;;;;;;6215323;23;20636;-79
2022/03/07 04:23:13;;;;;;;5.28;3.13;;;-1.80;99.90;;;;;;6242817;23;20078;-79
2022/03/07 04:25:39;;;;;;;7.93;2.60;;;-1.80;99.90;;;;;;6241858;23;20016;-80
2022/03/07 04:28:05;;;;;;;11.60;3.00;;;-1.80;99.90;;;;;;6216198;23;20318;-78
2022/03/07 04:30:32;;;;;;;7.43;3.30;;;-1.90;99.90;;;;;;6216247;23;20044;-81
2022/03/07 04:32:57;;;;;;;5.40;2.85;;;-1.90;99.90;;;;;;6242130;23;20355;-78
2022/03/07 04:35:23;;;;;;;7.47;2.78;;;-1.80;99.90;;;;;;6242080;23;20036;-78
2022/03/07 04:37:48;;;;;;;5.60;2.88;;;-1.80;99.90;;;;;;6216811;23;20016;-77
2022/03/07 04:40:16;;;;;;;15.68;3.30;;;-1.80;99.90;;;;;;6242185;23;20012;-78
2022/03/07 04:42:44;;;;;;;8.07;2.88;;;-1.90;99.90;;;;;;6215904;23;20012;-79
2022/03/07 04:45:12;;;;;;;4.95;2.60;;;-1.90;99.90;;;;;;6239247;23;20027;-78
2022/03/07 04:47:37;;;;;;;4.30;2.70;;;-1.90;99.90;;;;;;6241844;23;20012;-79
2022/03/07 04:50:05;;;;;;;7.50;3.03;;;-2.00;99.90;;;;;;6242263;23;20358;-80
2022/03/07 04:52:32;;;;;;;6.10;2.80;;;-2.00;99.90;;;;;;6241989;23;20105;-79
2022/03/07 04:54:57;;;;;;;5.38;2.85;;;-2.00;99.90;;;;;;6241783;23;20016;-79
2022/03/07 04:57:23;;;;;;;7.57;2.90;;;-2.00;99.90;;;;;;6216055;23;20015;-78
2022/03/07 04:59:49;;;;;;;6.30;2.70;;;-2.00;99.90;;;;;;6240879;23;20336;-80
2022/03/07 05:02:15;;;;;;;9.45;2.90;;;-1.90;99.90;;;;;;6216283;23;20432;-77
2022/03/07 05:04:41;;;;;;;6.40;2.80;;;-1.90;99.90;;;;;;6241739;23;20083;-79
2022/03/07 05:07:07;;;;;;;9.90;2.95;;;-1.80;99.90;;;;;;6216251;23;20050;-78
2022/03/07 05:09:33;;;;;;;8.70;2.80;;;-1.90;99.90;;;;;;6241846;23;20106;-77
2022/03/07 05:11:59;;;;;;;4.40;2.58;;;-1.90;99.90;;;;;;6242168;23;20016;-80
2022/03/07 05:14:25;;;;;;;9.02;3.05;;;-1.30;99.90;;;;;;6241647;23;20042;-77
2022/03/07 05:16:51;;;;;;;6.85;2.80;;;-2.00;99.90;;;;;;6216772;23;20012;-78
2022/03/07 05:19:16;;;;;;;6.80;3.17;;;-2.00;99.90;;;;;;6242211;23;20015;-78
2022/03/07 05:21:42;;;;;;;5.00;3.13;;;-2.00;99.90;;;;;;6243075;23;20087;-78
2022/03/07 05:24:09;;;;;;;3.10;2.42;;;-2.10;99.90;;;;;;6216565;23;20091;-79
2022/03/07 05:26:35;;;;;;;5.20;2.90;;;-2.10;99.90;;;;;;6216428;23;20016;-78
2022/03/07 05:29:03;;;;;;;7.28;2.95;;;-2.10;99.90;;;;;;6214656;23;20066;-79
2022/03/07 05:31:29;;;;;;;10.55;2.80;;;-2.20;99.90;;;;;;6241608;23;20081;-78
2022/03/07 05:33:55;;;;;;;6.20;3.10;;;-2.20;99.90;;;;;;6215939;23;20017;-78
2022/03/07 05:36:21;;;;;;;4.32;2.55;;;-2.20;99.90;;;;;;6242130;23;20008;-77
2022/03/07 05:38:46;;;;;;;5.03;2.60;;;-2.20;99.90;;;;;;6241850;23;20008;-80
2022/03/07 05:41:12;;;;;;;3.92;2.67;;;-1.20;99.90;;;;;;6216730;23;20012;-78
2022/03/07 05:43:38;;;;;;;6.22;2.60;;;-2.20;99.90;;;;;;6240891;23;20126;-78
2022/03/07 05:46:06;;;;;;;5.93;2.63;;;-2.20;99.90;;;;;;6241801;23;20012;-77
2022/03/07 05:48:32;;;;;;;6.07;3.22;;;-2.20;99.90;;;;;;6241977;23;20011;-77
2022/03/07 05:50:57;;;;;;;8.55;2.90;;;-2.20;99.90;;;;;;6216975;23;20087;-78
2022/03/07 05:53:23;;;;;;;5.18;3.20;;;-2.30;99.90;;;;;;6242091;23;20008;-79
2022/03/07 05:55:50;;;;;;;7.28;2.80;;;-2.20;99.90;;;;;;6241816;23;20141;-77
2022/03/07 05:58:16;;;;;;;7.72;2.70;;;-2.30;99.90;;;;;;6215763;23;20040;-78
2022/03/07 06:00:42;;;;;;;5.53;3.83;;;-1.80;99.90;;;;;;6241174;23;20053;-79
2022/03/07 06:03:08;;;;;;;8.30;2.97;;;-2.30;99.90;;;;;;6241933;23;20289;-78
2022/03/07 06:05:33;;;;;;;8.18;3.40;;;-2.30;99.90;;;;;;6216709;23;20019;-79
2022/03/07 06:07:59;;;;;;;8.57;3.33;;;-2.30;99.90;;;;;;6216273;23;20070;-77
2022/03/07 06:10:25;;;;;;;10.25;3.40;;;-2.30;99.90;;;;;;6241502;23;20329;-79
2022/03/07 06:12:51;;;;;;;6.47;3.03;;;-2.20;99.90;;;;;;6242473;23;20065;-77
2022/03/07 06:15:17;;;;;;;4.90;3.00;;;-2.30;99.90;;;;;;6240490;23;20012;-78
2022/03/07 06:17:57;;;;;;;7.15;3.05;;;-2.20;99.90;;;;;;6242225;23;20076;-80
2022/03/07 06:20:24;;;;;;;4.95;3.00;;;-2.20;99.90;;;;;;6216537;23;20018;-78
2022/03/07 06:22:51;;;;;;;7.38;3.25;;;-2.20;99.90;;;;;;6216927;23;20088;-80
2022/03/07 06:25:17;;;;;;;5.47;3.35;;;-2.00;99.90;;;;;;6241855;23;20023;-79
2022/03/07 06:27:42;;;;;;;12.02;4.50;;;-2.00;99.90;;;;;;6241206;23;20437;-79
2022/03/07 06:30:08;;;;;;;7.35;4.10;;;-1.90;99.90;;;;;;6240639;23;20344;-78
2022/03/07 06:32:38;;;;;;;8.95;3.90;;;-1.80;99.90;;;;;;6215997;23;20029;-79
2022/03/07 06:35:05;;;;;;;9.48;3.55;;;-1.80;99.90;;;;;;6241867;23;20023;-80
2022/03/07 06:37:31;;;;;;;6.53;3.75;;;-1.80;99.90;;;;;;6216599;23;20023;-77
2022/03/07 06:39:57;;;;;;;9.07;4.63;;;-1.80;99.90;;;;;;6241215;23;20012;-80
2022/03/07 06:42:23;;;;;;;8.00;4.35;;;-1.70;99.90;;;;;;6241360;23;20304;-78
2022/03/07 06:44:48;;;;;;;9.27;4.53;;;-1.60;99.90;;;;;;6240537;23;20019;-79
2022/03/07 06:47:14;;;;;;;7.70;4.47;;;-1.10;99.90;;;;;;6241939;23;20285;-79
2022/03/07 06:49:40;;;;;;;6.20;3.78;;;-1.20;99.90;;;;;;6214755;23;20736;-79
2022/03/07 06:52:06;;;;;;;10.05;4.10;;;-1.30;99.90;;;;;;6214641;23;20016;-79
2022/03/07 06:54:32;;;;;;;10.65;4.22;;;-1.20;99.90;;;;;;6214967;23;20092;-78
2022/03/07 06:56:58;;;;;;;5.82;4.05;;;-1.30;99.90;;;;;;6215422;23;20016;-80
2022/03/07 06:59:24;;;;;;;8.32;4.18;;;-1.20;99.90;;;;;;6239302;23;20231;-79
2022/03/07 07:01:51;;;;;;;8.30;4.55;;;-1.20;99.90;;;;;;6215201;23;20087;-80
2022/03/07 07:04:17;;;;;;;13.10;5.60;;;-1.20;99.90;;;;;;6215011;23;20039;-78
2022/03/07 07:06:43;;;;;;;8.60;6.57;;;-1.20;99.90;;;;;;6215595;23;20078;-78
2022/03/07 07:09:09;;;;;;;11.45;7.03;;;-1.20;99.90;;;;;;6241087;23;20401;-78
2022/03/07 07:11:36;;;;;;;12.63;6.90;;;-1.30;99.90;;;;;;6217069;23;20023;-78
2022/03/07 07:14:02;;;;;;;11.35;6.30;;;-1.20;99.90;;;;;;6240904;23;20054;-78
2022/03/07 07:16:28;;;;;;;12.15;5.57;;;-1.10;99.90;;;;;;6215737;23;20008;-78
2022/03/07 07:18:54;;;;;;;9.13;5.03;;;-1.00;99.90;;;;;;6214435;23;20095;-76
2022/03/07 07:21:20;;;;;;;8.80;4.75;;;-1.00;99.90;;;;;;6214395;23;20008;-78
2022/03/07 07:23:45;;;;;;;11.20;5.88;;;-0.90;99.90;;;;;;6216585;23;20317;-77
2022/03/07 07:26:11;;;;;;;11.00;5.85;;;-0.90;99.90;;;;;;6240750;23;20023;-78
2022/03/07 07:28:37;;;;;;;10.32;6.65;;;-0.80;99.90;;;;;;6239900;23;20127;-79
2022/03/07 07:31:03;;;;;;;13.40;6.30;;;-0.80;99.90;;;;;;6241202;23;20019;-80
2022/03/07 07:33:29;;;;;;;9.77;6.03;;;-0.70;99.90;;;;;;6214639;23;20015;-77
2022/03/07 07:35:56;;;;;;;9.38;5.75;;;-0.60;99.90;;;;;;6241286;23;20070;-79
2022/03/07 07:38:21;;;;;;;10.38;6.20;;;-0.50;99.90;;;;;;6216215;23;20317;-79
2022/03/07 07:40:50;;;;;;;13.48;5.78;;;-0.40;99.90;;;;;;6216119;23;20012;-80
2022/03/07 07:43:17;;;;;;;16.23;7.22;;;-0.30;99.90;;;;;;6214865;23;20047;-80
2022/03/07 07:45:43;;;;;;;13.27;6.70;;;-0.30;99.90;;;;;;6240354;23;20024;-81
2022/03/07 07:48:08;;;;;;;11.85;6.47;;;-0.20;99.90;;;;;;6240789;23;20317;-79
2022/03/07 07:50:34;;;;;;;16.70;7.45;;;-0.20;99.90;;;;;;6240265;23;20020;-77
2022/03/07 07:53:00;;;;;;;12.43;6.43;;;-0.10;99.90;;;;;;6215197;23;20016;-79
2022/03/07 07:55:25;;;;;;;14.98;7.10;;;0.00;99.90;;;;;;6216015;23;20016;-78
2022/03/07 07:57:51;;;;;;;16.65;7.07;;;0.10;99.90;;;;;;6243104;23;20035;-77
2022/03/07 08:00:19;;;;;;;18.15;7.20;;;0.10;99.90;;;;;;6242952;23;20055;-79
2022/03/07 08:02:46;;;;;;;12.70;7.03;;;0.30;99.90;;;;;;6243774;23;20023;-78
2022/03/07 08:05:12;;;;;;;14.18;7.05;;;0.40;99.90;;;;;;6217071;23;20104;-79
2022/03/07 08:07:39;;;;;;;16.25;6.90;;;0.50;99.90;;;;;;6218476;23;20047;-78
2022/03/07 08:10:05;;;;;;;23.02;7.88;;;0.50;99.90;;;;;;6243670;23;20020;-78
2022/03/07 08:12:32;;;;;;;15.40;7.78;;;0.70;99.90;;;;;;6243749;23;20096;-78
2022/03/07 08:14:58;;;;;;;16.08;7.45;;;0.80;99.90;;;;;;6217407;23;20433;-79
2022/03/07 08:17:23;;;;;;;29.42;10.23;;;0.80;99.90;;;;;;6243599;23;20065;-78
2022/03/07 08:19:49;;;;;;;23.45;8.32;;;0.90;99.90;;;;;;6243441;23;20062;-78
2022/03/07 08:22:15;;;;;;;25.20;8.60;;;1.00;99.90;;;;;;6217244;23;20320;-78
2022/03/07 08:24:41;;;;;;;20.17;8.00;;;1.10;99.90;;;;;;6242297;23;20012;-80
2022/03/07 08:27:07;;;;;;;26.20;9.07;;;1.10;99.90;;;;;;6243215;23;20043;-78
2022/03/07 08:29:33;;;;;;;22.83;7.05;;;1.20;99.90;;;;;;6240529;23;20444;-78
2022/03/07 08:31:58;;;;;;;18.70;6.60;;;1.40;99.90;;;;;;6241776;23;20016;-78
2022/03/07 08:34:24;;;;;;;17.38;6.90;;;1.40;99.90;;;;;;6216318;23;20025;-78
2022/03/07 08:36:50;;;;;;;16.17;6.68;;;2.00;99.90;;;;;;6216888;23;20099;-79
2022/03/07 08:39:15;;;;;;;23.70;7.30;;;1.90;99.90;;;;;;6216772;23;20090;-79
2022/03/07 08:41:41;;;;;;;18.55;7.25;;;1.80;99.90;;;;;;6242811;23;20085;-79
2022/03/07 08:44:06;;;;;;;22.17;7.25;;;1.90;99.90;;;;;;6241177;23;20020;-78
2022/03/07 08:46:32;;;;;;;17.95;7.07;;;1.90;99.90;;;;;;6242305;23;20425;-77
2022/03/07 08:48:58;;;;;;;24.60;6.97;;;2.00;99.90;;;;;;6241502;23;20061;-78
2022/03/07 08:51:23;;;;;;;17.10;5.40;;;2.10;99.90;;;;;;6241951;23;20078;-78
2022/03/07 08:53:49;;;;;;;14.25;4.47;;;2.20;99.90;;;;;;6240855;23;20035;-77
2022/03/07 08:56:15;;;;;;;8.63;3.72;;;2.30;99.90;;;;;;6216305;23;20458;-78
2022/03/07 08:58:41;;;;;;;10.18;3.75;;;2.50;99.90;;;;;;6242065;23;20012;-76
2022/03/07 09:01:07;;;;;;;10.73;4.28;;;2.60;99.90;;;;;;6242357;23;20041;-77
2022/03/07 09:03:34;;;;;;;11.90;4.00;;;2.70;99.90;;;;;;6215357;23;20012;-79
2022/03/07 09:06:01;;;;;;;15.70;4.38;;;2.70;99.90;;;;;;6216759;22;20091;-79
2022/03/07 09:08:26;;;;;;;9.43;3.40;;;2.80;99.90;;;;;;6217449;23;20373;-76
2022/03/07 09:10:52;;;;;;;10.68;3.17;;;3.00;99.90;;;;;;6242128;23;20023;-76
2022/03/07 09:13:18;;;;;;;12.23;3.72;;;3.30;99.90;;;;;;6218809;23;20533;-78
2022/03/07 09:15:45;;;;;;;10.70;3.38;;;3.10;99.90;;;;;;6240716;23;20016;-79
2022/03/07 09:18:12;;;;;;;10.48;3.60;;;3.20;99.90;;;;;;6242150;23;20018;-80
2022/03/07 09:20:39;;;;;;;4.20;3.00;;;3.50;99.90;;;;;;6241893;23;20018;-77
2022/03/07 09:23:05;;;;;;;8.45;2.42;;;3.40;99.90;;;;;;6242267;23;20012;-78
2022/03/07 09:25:31;;;;;;;10.27;2.58;;;3.40;99.90;;;;;;6241830;23;20089;-78
2022/03/07 09:27:57;;;;;;;7.45;3.17;;;3.50;99.90;;;;;;6241240;23;20028;-79
2022/03/07 09:30:23;;;;;;;11.52;3.65;;;3.40;99.90;;;;;;6215775;23;20459;-79
2022/03/07 09:32:49;;;;;;;12.90;3.70;;;3.50;99.90;;;;;;6242802;23;20023;-81
2022/03/07 09:35:15;;;;;;;11.48;3.67;;;3.60;99.90;;;;;;6240856;23;20013;-76
2022/03/07 09:37:41;;;;;;;14.60;3.53;;;3.60;99.90;;;;;;6216826;23;20436;-79
2022/03/07 09:40:08;;;;;;;6.80;3.33;;;3.60;99.90;;;;;;6240903;23;20320;-80
2022/03/07 09:42:34;;;;;;;10.32;3.33;;;3.70;99.90;;;;;;6216680;23;20015;-77
2022/03/07 09:45:00;;;;;;;6.68;3.40;;;3.70;99.90;;;;;;6240672;23;20306;-78
2022/03/07 09:47:27;;;;;;;7.13;3.30;;;3.80;99.90;;;;;;6241686;23;20328;-82
2022/03/07 09:49:52;;;;;;;7.60;3.40;;;4.00;99.90;;;;;;6215438;23;20016;-76
2022/03/07 09:52:18;;;;;;;7.63;3.28;;;4.00;99.90;;;;;;6215518;23;20018;-82
2022/03/07 09:54:44;;;;;;;13.23;3.33;;;4.10;99.90;;;;;;6216611;23;20020;-81
2022/03/07 09:57:10;;;;;;;12.05;3.55;;;4.20;99.90;;;;;;6241979;23;20031;-81
2022/03/07 09:59:36;;;;;;;11.45;2.80;;;4.40;99.90;;;;;;6241045;23;20340;-79
2022/03/07 10:02:14;;;;;;;14.18;3.13;;;4.60;99.90;;;;;;6216127;23;20008;-77
2022/03/07 10:04:43;;;;;;;9.98;3.28;;;4.50;99.90;;;;;;6215949;23;20380;-76
2022/03/07 10:07:12;;;;;;;9.25;3.42;;;4.70;99.90;;;;;;6216667;23;20016;-81
2022/03/07 10:09:38;;;;;;;5.43;2.67;;;4.60;99.90;;;;;;6241763;23;20863;-83
2022/03/07 10:12:05;;;;;;;11.98;3.25;;;4.50;99.90;;;;;;6241804;23;20028;-80
2022/03/07 10:14:42;;;;;;;7.78;2.35;;;4.60;99.90;;;;;;6215469;23;20020;-82
2022/03/07 10:17:19;;;;;;;6.07;2.40;;;4.80;99.90;;;;;;6242850;23;20019;-80
2022/03/07 10:19:46;;;;;;;11.48;2.60;;;4.80;99.90;;;;;;6241505;23;20114;-80
2022/03/07 10:22:27;;;;;;;6.95;2.30;;;4.90;99.90;;;;;;6216700;23;20015;-83
2022/03/07 10:25:05;;;;;;;8.77;2.38;;;5.00;99.90;;;;;;6241624;23;20035;-84
2022/03/07 10:27:39;;;;;;;5.93;2.17;;;5.30;99.90;;;;;;6241986;23;20344;-84
2022/03/07 10:30:12;;;;;;;10.27;2.47;;;5.50;99.90;;;;;;6190098;23;20397;-84
2022/03/07 10:32:39;;;;;;;8.82;2.30;;;5.80;99.90;;;;;;6244390;23;20008;-82
2022/03/07 10:35:06;;;;;;;6.68;2.15;;;6.00;99.90;;;;;;6216822;23;20043;-83
2022/03/07 10:37:33;;;;;;;7.32;2.30;;;6.10;99.90;;;;;;6192633;23;20424;-81
2022/03/07 10:39:59;;;;;;;9.82;2.47;;;6.30;99.90;;;;;;6216259;23;20008;-84
2022/03/07 10:42:24;;;;;;;8.40;2.00;;;6.10;99.90;;;;;;6216416;23;20016;-82
2022/03/07 10:44:50;;;;;;;11.70;2.42;;;6.00;99.90;;;;;;6191101;23;20093;-83
2022/03/07 10:47:19;;;;;;;12.15;2.30;;;5.90;99.90;;;;;;6190473;23;20012;-84
2022/03/07 10:49:54;;;;;;;6.10;1.90;;;5.80;99.90;;;;;;6217079;23;20082;-83
2022/03/07 10:52:22;;;;;;;;;;;6.50;99.90;;;;;;6193212;23;20023;-82
2022/03/07 10:54:49;;;;;;;10.80;2.60;;;6.30;99.90;;;;;;6215742;23;20240;-80
2022/03/07 10:57:19;;;;;;;6.53;2.22;;;6.50;99.90;;;;;;6189838;23;20012;-80
2022/03/07 10:59:45;;;;;;;10.02;2.10;;;6.70;99.90;;;;;;6188683;23;20023;-83
2022/03/07 11:02:16;;;;;;;5.55;2.10;;;6.70;99.90;;;;;;6215383;23;20091;-79
2022/03/07 11:04:50;;;;;;;4.88;1.98;;;6.40;99.90;;;;;;6216534;23;20018;-80
2022/03/07 11:07:16;;;;;;;5.57;1.75;;;6.30;99.90;;;;;;6190801;23;20020;-84
2022/03/07 11:09:42;;;;;;;6.90;2.22;;;6.30;99.90;;;;;;6215170;23;20034;-80
2022/03/07 11:12:13;;;;;;;6.60;2.45;;;6.60;99.90;;;;;;6191082;23;20016;-77
2022/03/07 11:14:40;;;;;;;5.95;2.08;;;7.20;99.90;;;;;;6242568;23;20405;-79
2022/03/07 11:17:12;;;;;;;6.50;1.88;;;7.20;99.90;;;;;;6190607;23;20012;-79
2022/03/07 11:19:39;;;;;;;6.88;2.10;;;7.50;99.90;;;;;;6215824;23;20114;-83
2022/03/07 11:22:05;;;;;;;4.90;1.90;;;7.60;99.90;;;;;;6216107;23;20538;-83
2022/03/07 11:24:35;;;;;;;5.90;1.77;;;7.80;99.90;;;;;;6191009;23;20048;-79
2022/03/07 11:27:02;;;;;;;5.50;1.98;;;8.10;99.90;;;;;;6189707;23;20070;-80
2022/03/07 11:29:41;;;;;;;3.33;1.20;;;8.30;99.90;;;;;;6236733;23;20021;-81
2022/03/07 11:32:18;;;;;;;3.97;1.10;;;8.70;99.90;;;;;;6243488;23;20082;-79
2022/03/07 11:34:59;;;;;;;2.97;1.75;;;9.00;99.90;;;;;;6242760;23;20095;-81
2022/03/07 11:37:30;;;;;;;2.67;1.60;;;9.10;99.90;;;;;;6243539;23;20442;-81
2022/03/07 11:39:58;;;;;;;3.92;1.70;;;8.90;99.90;;;;;;6242881;23;20044;-77
2022/03/07 11:42:33;;;;;;;4.93;1.55;;;8.70;99.90;;;;;;6217821;23;20019;-82
2022/03/07 11:45:16;;;;;;;3.28;1.40;;;8.40;99.90;;;;;;6244858;22;20146;-78
2022/03/07 11:47:42;;;;;;;6.25;1.42;;;8.50;99.90;;;;;;6217188;23;20020;-78
2022/03/07 11:50:09;;;;;;;3.65;1.27;;;8.50;99.90;;;;;;6218036;23;20016;-78
2022/03/07 11:52:35;;;;;;;4.03;1.20;;;8.40;99.90;;;;;;6217920;23;20020;-78
2022/03/07 11:55:07;;;;;;;7.93;1.48;;;8.40;99.90;;;;;;6217931;23;20020;-78
2022/03/07 11:57:45;;;;;;;4.50;1.30;;;8.30;99.90;;;;;;6242343;23;20096;-80
2022/03/07 12:00:14;;;;;;;3.65;1.45;;;8.40;99.90;;;;;;6241621;23;20008;-81
2022/03/07 12:02:45;;;;;;;5.13;1.40;;;8.90;99.90;;;;;;6217747;23;20016;-79
2022/03/07 12:05:23;;;;;;;5.63;1.52;;;9.30;99.90;;;;;;6217862;23;20020;-81
2022/03/07 12:07:49;;;;;;;;;;;9.50;99.90;;;;;;6243888;22;20016;-82
2022/03/07 12:10:15;;;;;;;2.67;1.10;;;9.30;99.90;;;;;;6241763;23;19926;-82
2022/03/07 12:12:41;;;;;;;4.10;1.35;;;9.80;99.90;;;;;;6218019;23;20015;-81
2022/03/07 12:15:09;;;;;;;2.40;0.98;;;9.70;99.90;;;;;;6241701;23;20016;-82
2022/03/07 12:17:34;;;;;;;3.30;1.20;;;9.30;99.90;;;;;;6243578;23;20096;-81
2022/03/07 12:20:00;;;;;;;2.55;1.10;;;9.30;99.90;;;;;;6217806;23;20617;-81
2022/03/07 12:22:32;;;;;;;1.52;1.10;;;9.70;99.90;;;;;;6242833;23;20016;-81
2022/03/07 12:24:59;;;;;;;2.00;0.93;;;9.90;99.90;;;;;;6243094;23;20016;-82
2022/03/07 12:27:25;;;;;;;2.83;0.98;;;10.30;99.90;;;;;;6245742;22;20054;-81
2022/03/07 12:29:51;;;;;;;4.30;1.50;;;10.50;99.90;;;;;;6216014;23;20333;-82
2022/03/07 12:32:20;;;;;;;4.60;1.30;;;10.50;99.90;;;;;;6218152;23;20016;-81
2022/03/07 12:34:47;;;;;;;4.30;1.35;;;10.40;99.90;;;;;;6218755;23;20016;-81
2022/03/07 12:37:20;;;;;;;3.65;1.45;;;10.40;99.90;;;;;;6218607;23;20108;-82
2022/03/07 12:39:47;;;;;;;5.07;1.40;;;10.20;99.90;;;;;;6217961;23;20030;-80
2022/03/07 12:42:15;;;;;;;3.40;1.45;;;9.70;99.90;;;;;;6218245;23;20015;-80
2022/03/07 12:44:41;;;;;;;3.63;1.25;;;9.50;99.90;;;;;;6216992;23;20078;-82